Network News

X My Profile
View More Activity
The new Washington
Post Weather website
Jump to CWG's
Latest Full Forecast
Outside now? Radar, temps
and more: Weather Wall
Follow us on Twitter (@capitalweather) and become a fan on Facebook
Posted at 1:21 PM ET, 09/25/2009

Look Who's Colder...

By Capital Weather Gang

* Weekend Rain... When? Full Forecast | NatCast *
* Grading our Summer Outlook *

colder.gif
24-hour temperature change. Courtesy weather.com

Yesterday at noon, we were 85, today at noon: 67. No one in the nation had a bigger swing. Hat tip: CWG's Josh Larson.

By Capital Weather Gang  | September 25, 2009; 1:21 PM ET
 
Save & Share:  Send E-mail   Facebook   Twitter   Digg   Yahoo Buzz   Del.icio.us   StumbleUpon   Technorati   Google Buzz   Previous: Grading Our 2009 Summer Outlook
Next: PM Update: A Pleasantly Cool Evening and Night

Comments

The folks at Charlottesville, to pick one at random, might beg to disagree:

KCHO 251553Z 00000KT 5SM BR BKN009 OVC022 16/14 A3023 RMK AO2 RAE48 SLP231 P0001 T01560144
KCHO 241553Z VRB03KT 10SM SCT025 BKN060 28/19 A3010 RMK AO2 SLP185 T02830194
15.6C = 60F
28.3C = 83F
Difference = 23F

Posted by: CapitalClimate | September 25, 2009 2:27 PM | Report abuse

P.S. Some minimal fact-checking would have shown some others in New England, as well.

Posted by: CapitalClimate | September 25, 2009 2:36 PM | Report abuse

Now now CC, you know full well he was only referencing those that were on the map. Now you're just trying too hard.

Posted by: Brian-CapitalWeatherGang | September 25, 2009 4:46 PM | Report abuse

Of course we were just referencing the map.

Posted by: CapitalWeatherGang | September 25, 2009 11:09 PM | Report abuse

Yes, you've lowered your standards and credibility faster than anyone could possibly keep up.
"No one in the nation had a bigger swing" doesn't say "no one else on this cartoonish map."
Congratulations on winning the Roger Pielke Jr. Talent Award (with the heavy emphasis on junior) for "intentional ambiguity and ferocious flip-flopping", as well as exhaust self-inhalation. The pathetic part of this is that you sold out so cheaply.

Posted by: CapitalClimate | September 30, 2009 6:42 PM | Report abuse

The comments to this entry are closed.

 
 
RSS Feed
Subscribe to The Post

© 2012 The Washington Post Company